Time;durP1;ratioP1;P1;durP2;ratioP2;P2;SDS_P1;SDS_P2;PMS_P1;PMS_P2;Temp;Humidity;BMP_temperature;BMP_pressure;BME280_temperature;BME280_humidity;BME280_pressure;Samples;Min_cycle;Max_cycle;Signal;HPM_P1;HPM_P2
2023/04/27 00:01:34;;;;;;;9.52;6.82;;;4.20;99.90;;;;;;5063225;28;20563;-61
2023/04/27 00:04:03;;;;;;;16.35;7.85;;;4.20;99.90;;;;;;5061357;28;20036;-59
2023/04/27 00:06:29;;;;;;;13.13;6.90;;;4.20;99.90;;;;;;5063445;28;20119;-60
2023/04/27 00:08:55;;;;;;;9.55;7.55;;;4.10;99.90;;;;;;5048469;28;20040;-60
2023/04/27 00:11:21;;;;;;;9.98;7.32;;;4.00;99.90;;;;;;5075616;28;20045;-60
2023/04/27 00:13:47;;;;;;;11.25;7.43;;;4.00;99.90;;;;;;5062757;28;20037;-61
2023/04/27 00:16:13;;;;;;;11.70;8.10;;;4.00;99.90;;;;;;5067216;28;20098;-60
2023/04/27 00:18:38;;;;;;;14.80;8.40;;;3.90;99.90;;;;;;5067043;28;20441;-61
2023/04/27 00:21:04;;;;;;;10.05;7.47;;;3.90;99.90;;;;;;5065402;28;20529;-60
2023/04/27 00:23:30;;;;;;;11.65;6.85;;;3.90;99.90;;;;;;5063708;28;20040;-60
2023/04/27 00:25:56;;;;;;;9.93;7.07;;;3.90;99.90;;;;;;5063059;28;20067;-60
2023/04/27 00:28:22;;;;;;;11.02;6.80;;;3.90;99.90;;;;;;5064347;28;20113;-60
2023/04/27 00:30:47;;;;;;;11.80;8.30;;;3.90;99.90;;;;;;5072848;28;20044;-60
2023/04/27 00:33:13;;;;;;;13.25;8.23;;;4.00;99.90;;;;;;5064430;28;20415;-59
2023/04/27 00:35:39;;;;;;;11.07;8.23;;;4.10;99.90;;;;;;5068892;28;20707;-60
2023/04/27 00:38:05;;;;;;;13.00;7.90;;;4.00;99.90;;;;;;5064741;28;20083;-60
2023/04/27 00:40:30;;;;;;;13.35;9.18;;;4.00;99.90;;;;;;5065217;28;20120;-60
2023/04/27 00:42:56;;;;;;;11.73;8.57;;;4.10;99.90;;;;;;5054081;28;20098;-60
2023/04/27 00:45:22;;;;;;;12.18;7.78;;;4.10;99.90;;;;;;5059586;28;20126;-60
2023/04/27 00:47:48;;;;;;;11.63;8.68;;;4.20;99.90;;;;;;5061426;28;20033;-61
2023/04/27 00:50:15;;;;;;;13.13;7.47;;;4.20;99.90;;;;;;5049252;28;20050;-61
2023/04/27 00:52:41;;;;;;;12.20;8.07;;;4.20;99.90;;;;;;5068387;28;20041;-61
2023/04/27 00:55:07;;;;;;;13.02;7.63;;;4.20;99.90;;;;;;5064370;28;20102;-60
2023/04/27 00:57:33;;;;;;;12.85;7.78;;;4.10;99.90;;;;;;5071264;28;20083;-60
2023/04/27 01:00:05;;;;;;;10.65;7.38;;;4.10;99.90;;;;;;5042900;28;20043;-59
2023/04/27 01:02:31;;;;;;;10.55;7.00;;;4.00;99.90;;;;;;5059198;28;20131;-61
2023/04/27 01:04:57;;;;;;;9.73;6.90;;;4.00;99.90;;;;;;5070655;28;20123;-61
2023/04/27 01:07:26;;;;;;;10.05;6.78;;;4.00;99.90;;;;;;5065017;28;21353;-60
2023/04/27 01:09:52;;;;;;;16.40;7.63;;;4.10;99.90;;;;;;5049844;28;20068;-60
2023/04/27 01:12:17;;;;;;;11.18;7.25;;;4.10;99.90;;;;;;5065173;28;20052;-61
2023/04/27 01:14:43;;;;;;;9.40;6.43;;;4.10;99.90;;;;;;5060710;28;20033;-60
2023/04/27 01:17:09;;;;;;;12.15;6.35;;;4.00;99.90;;;;;;5062275;28;20036;-60
2023/04/27 01:19:35;;;;;;;10.10;6.78;;;3.90;99.90;;;;;;5065038;28;20032;-60
2023/04/27 01:22:00;;;;;;;10.82;7.18;;;3.90;99.90;;;;;;5069069;28;20041;-61
2023/04/27 01:24:26;;;;;;;9.90;6.05;;;3.80;99.90;;;;;;5067045;28;20047;-60
2023/04/27 01:26:52;;;;;;;10.32;6.90;;;3.80;99.90;;;;;;5061566;28;20415;-59
2023/04/27 01:29:20;;;;;;;9.52;6.90;;;3.70;99.90;;;;;;5064370;28;20036;-60
2023/04/27 01:31:45;;;;;;;10.05;6.40;;;3.70;99.90;;;;;;5061989;28;20520;-59
2023/04/27 01:34:11;;;;;;;9.38;6.07;;;3.70;99.90;;;;;;5059220;28;20044;-60
2023/04/27 01:36:37;;;;;;;8.65;6.55;;;3.80;99.90;;;;;;5056116;28;20040;-60
2023/04/27 01:39:07;;;;;;;12.52;6.70;;;3.80;99.90;;;;;;5072203;28;20043;-61
2023/04/27 01:41:34;;;;;;;8.45;6.70;;;3.80;99.90;;;;;;5054968;28;20432;-60
2023/04/27 01:44:00;;;;;;;8.52;6.10;;;3.80;99.90;;;;;;5061039;28;20074;-60
2023/04/27 01:46:26;;;;;;;11.07;6.45;;;3.90;99.90;;;;;;5028160;28;20836;-60
2023/04/27 01:48:51;;;;;;;12.02;6.82;;;4.00;99.90;;;;;;5063895;28;20040;-60
2023/04/27 01:51:17;;;;;;;9.88;6.05;;;4.10;99.90;;;;;;5064148;28;20037;-60
2023/04/27 01:53:43;;;;;;;7.15;5.03;;;4.10;99.90;;;;;;5064073;28;20064;-60
2023/04/27 01:56:09;;;;;;;10.50;5.88;;;4.20;99.90;;;;;;5061008;28;20116;-60
2023/04/27 01:58:35;;;;;;;10.07;7.15;;;4.20;99.90;;;;;;5060560;28;20625;-60
2023/04/27 02:01:00;;;;;;;12.00;6.15;;;4.10;99.90;;;;;;5059692;28;20395;-60
2023/04/27 02:03:26;;;;;;;9.57;6.03;;;4.10;99.90;;;;;;5055828;28;20674;-60
2023/04/27 02:05:52;;;;;;;9.73;5.95;;;4.10;99.90;;;;;;5056801;28;20048;-62
2023/04/27 02:08:17;;;;;;;11.05;6.82;;;4.10;99.90;;;;;;5062557;28;20044;-62
2023/04/27 02:10:43;;;;;;;9.68;5.53;;;4.10;99.90;;;;;;5061685;28;20040;-61
2023/04/27 02:13:09;;;;;;;8.45;5.57;;;4.20;99.90;;;;;;5058865;28;20064;-63
2023/04/27 02:15:35;;;;;;;13.35;6.20;;;4.30;99.90;;;;;;5065826;28;20094;-61
2023/04/27 02:18:02;;;;;;;8.25;5.75;;;4.30;99.90;;;;;;5063185;28;20048;-61
2023/04/27 02:20:31;;;;;;;8.30;5.57;;;4.20;99.90;;;;;;5062245;28;20032;-61
2023/04/27 02:22:58;;;;;;;13.35;5.70;;;4.20;99.90;;;;;;5062598;28;20179;-63
2023/04/27 02:25:24;;;;;;;8.90;6.03;;;4.20;99.90;;;;;;5060920;28;20448;-63
2023/04/27 02:27:49;;;;;;;8.73;5.00;;;4.10;99.90;;;;;;5062938;28;20181;-61
2023/04/27 02:30:15;;;;;;;9.15;6.07;;;4.10;99.90;;;;;;5064856;28;20053;-62
2023/04/27 02:32:41;;;;;;;7.68;5.30;;;4.10;99.90;;;;;;5067626;28;20098;-61
2023/04/27 02:35:08;;;;;;;9.02;5.97;;;4.00;99.90;;;;;;5067075;28;20509;-63
2023/04/27 02:37:34;;;;;;;7.88;4.88;;;4.00;99.90;;;;;;5068606;28;20039;-61
2023/04/27 02:40:00;;;;;;;9.82;6.05;;;4.10;99.90;;;;;;5066951;28;20733;-61
2023/04/27 02:42:26;;;;;;;9.38;5.40;;;4.10;99.90;;;;;;5050628;28;20053;-61
2023/04/27 02:44:51;;;;;;;9.55;6.70;;;4.20;99.90;;;;;;5060696;28;20403;-62
2023/04/27 02:47:17;;;;;;;8.32;5.22;;;4.20;99.90;;;;;;5060958;28;20048;-61
2023/04/27 02:49:43;;;;;;;10.85;6.55;;;4.10;99.90;;;;;;5067098;28;20037;-62
2023/04/27 02:52:09;;;;;;;9.88;5.82;;;4.10;99.90;;;;;;5058967;28;20045;-62
2023/04/27 02:54:34;;;;;;;10.90;6.95;;;4.20;99.90;;;;;;5062148;28;20116;-63
2023/04/27 02:57:01;;;;;;;9.77;5.50;;;4.30;99.90;;;;;;5067615;28;20051;-61
2023/04/27 02:59:26;;;;;;;10.75;6.45;;;4.30;99.90;;;;;;5063567;28;20036;-61
2023/04/27 03:01:52;;;;;;;9.38;5.18;;;4.30;99.90;;;;;;5059883;28;20037;-61
2023/04/27 03:04:18;;;;;;;8.07;5.68;;;4.30;99.90;;;;;;5060546;28;20068;-62
2023/04/27 03:06:44;;;;;;;8.10;5.50;;;4.40;99.90;;;;;;5039079;28;20207;-62
2023/04/27 03:09:10;;;;;;;9.63;5.57;;;4.50;99.90;;;;;;5057822;28;20402;-63
2023/04/27 03:11:36;;;;;;;9.38;5.35;;;4.40;99.90;;;;;;5063224;28;20177;-61
2023/04/27 03:14:02;;;;;;;9.75;5.68;;;4.30;99.90;;;;;;5062756;28;20175;-61
2023/04/27 03:16:33;;;;;;;6.95;4.88;;;4.30;99.90;;;;;;5060947;28;20052;-63
2023/04/27 03:18:59;;;;;;;13.02;5.15;;;4.20;99.90;;;;;;5060602;28;20504;-62
2023/04/27 03:21:28;;;;;;;9.85;5.82;;;4.20;99.90;;;;;;5062715;28;20044;-61
2023/04/27 03:23:54;;;;;;;9.10;5.53;;;4.20;99.90;;;;;;5047653;28;20032;-62
2023/04/27 03:26:20;;;;;;;6.63;4.57;;;4.20;99.90;;;;;;5068186;28;20037;-61
2023/04/27 03:28:46;;;;;;;10.43;5.72;;;4.20;99.90;;;;;;5062938;28;20036;-61
2023/04/27 03:31:13;;;;;;;9.00;5.82;;;4.20;99.90;;;;;;5065539;28;20040;-62
2023/04/27 03:33:40;;;;;;;8.02;5.10;;;4.30;99.90;;;;;;5062339;28;20570;-62
2023/04/27 03:36:06;;;;;;;8.23;5.07;;;4.20;99.90;;;;;;5061788;28;20037;-64
2023/04/27 03:38:33;;;;;;;10.65;5.40;;;4.10;99.90;;;;;;5067877;28;20045;-61
2023/04/27 03:40:59;;;;;;;7.45;5.38;;;4.10;99.90;;;;;;5061245;28;20037;-62
2023/04/27 03:43:25;;;;;;;7.53;5.03;;;4.10;99.90;;;;;;5068197;28;20384;-63
2023/04/27 03:45:51;;;;;;;10.10;4.75;;;4.10;99.90;;;;;;5066343;28;20040;-62
2023/04/27 03:48:17;;;;;;;7.60;5.55;;;4.10;99.90;;;;;;5066018;28;20050;-60
2023/04/27 03:50:44;;;;;;;6.70;4.85;;;4.20;99.90;;;;;;5066273;28;20479;-62
2023/04/27 03:53:10;;;;;;;8.40;5.50;;;4.30;99.90;;;;;;5069484;28;20114;-61
2023/04/27 03:55:40;;;;;;;10.88;6.13;;;4.30;99.90;;;;;;5050995;28;20543;-62
2023/04/27 03:58:06;;;;;;;9.25;5.95;;;4.30;99.90;;;;;;5073805;28;20041;-62
2023/04/27 04:00:33;;;;;;;13.18;6.07;;;4.10;99.90;;;;;;5065956;28;20062;-62
2023/04/27 04:02:58;;;;;;;8.32;5.65;;;3.90;99.90;;;;;;5068947;28;20492;-61
2023/04/27 04:05:24;;;;;;;7.85;5.50;;;3.80;99.90;;;;;;5064047;28;20113;-61
2023/04/27 04:07:50;;;;;;;9.40;6.43;;;3.90;99.90;;;;;;5064685;28;20085;-63
2023/04/27 04:10:16;;;;;;;8.52;5.70;;;4.00;99.90;;;;;;5061028;28;20048;-62
2023/04/27 04:12:42;;;;;;;8.98;4.90;;;4.00;99.90;;;;;;5042239;28;20041;-64
2023/04/27 04:15:08;;;;;;;13.85;5.68;;;3.90;99.90;;;;;;5058334;28;20036;-64
2023/04/27 04:17:34;;;;;;;9.18;5.15;;;3.90;99.90;;;;;;5058969;28;20075;-61
2023/04/27 04:20:01;;;;;;;9.05;5.53;;;3.80;99.90;;;;;;5065191;28;20547;-63
2023/04/27 04:22:26;;;;;;;9.07;6.03;;;3.70;99.90;;;;;;5066340;28;20044;-62
2023/04/27 04:24:52;;;;;;;10.13;5.18;;;3.60;99.90;;;;;;5063496;28;20047;-61
2023/04/27 04:27:18;;;;;;;7.63;4.60;;;3.60;99.90;;;;;;5061762;28;20040;-62
2023/04/27 04:29:44;;;;;;;8.52;4.93;;;3.50;99.90;;;;;;5061873;28;20040;-62
2023/04/27 04:32:11;;;;;;;11.98;6.30;;;3.50;99.90;;;;;;5064744;28;20037;-61
2023/04/27 04:34:37;;;;;;;10.23;5.85;;;3.50;99.90;;;;;;5070923;28;20041;-61
2023/04/27 04:37:03;;;;;;;8.73;5.03;;;3.50;99.90;;;;;;5065812;28;20043;-63
2023/04/27 04:39:32;;;;;;;10.35;6.15;;;3.60;99.90;;;;;;5064038;28;20076;-62
2023/04/27 04:41:58;;;;;;;10.10;6.07;;;3.60;99.90;;;;;;5063524;28;20071;-62
2023/04/27 04:44:24;;;;;;;14.63;6.68;;;3.60;99.90;;;;;;5061859;28;20072;-61
2023/04/27 04:46:50;;;;;;;10.93;7.00;;;3.70;99.90;;;;;;5068520;28;20048;-62
2023/04/27 04:49:15;;;;;;;13.20;7.05;;;3.60;99.90;;;;;;5067538;28;20663;-62
2023/04/27 04:51:42;;;;;;;10.43;6.10;;;3.60;99.90;;;;;;5065375;28;20102;-63
2023/04/27 04:54:08;;;;;;;7.93;5.35;;;3.60;99.90;;;;;;5066567;28;20044;-62
2023/04/27 04:56:34;;;;;;;12.60;6.45;;;3.60;99.90;;;;;;5064890;28;20496;-62
2023/04/27 04:59:00;;;;;;;11.85;6.65;;;3.70;99.90;;;;;;5067611;28;20066;-62
2023/04/27 05:01:29;;;;;;;11.82;6.55;;;3.70;99.90;;;;;;5061553;28;20047;-59
2023/04/27 05:03:55;;;;;;;12.48;7.40;;;3.60;99.90;;;;;;5060176;28;20037;-59
2023/04/27 05:06:21;;;;;;;8.57;6.38;;;3.60;99.90;;;;;;5065985;28;20422;-59
2023/04/27 05:08:47;;;;;;;11.35;7.63;;;3.60;99.90;;;;;;5062220;28;20044;-59
2023/04/27 05:11:13;;;;;;;9.95;6.32;;;3.60;99.90;;;;;;5067434;28;20028;-59
2023/04/27 05:13:39;;;;;;;11.73;7.15;;;3.70;99.90;;;;;;5059962;28;20039;-59
2023/04/27 05:16:06;;;;;;;9.55;6.25;;;3.80;99.90;;;;;;5062292;28;20049;-59
2023/04/27 05:18:32;;;;;;;11.32;6.85;;;3.80;99.90;;;;;;5061067;28;20051;-59
2023/04/27 05:20:58;;;;;;;10.88;6.65;;;3.90;99.90;;;;;;5059656;28;20472;-59
2023/04/27 05:23:24;;;;;;;11.80;6.88;;;3.90;99.90;;;;;;5067153;28;20090;-59
2023/04/27 05:25:50;;;;;;;11.20;6.93;;;4.00;99.90;;;;;;5061096;28;20086;-59
2023/04/27 05:28:16;;;;;;;10.07;6.70;;;4.10;99.90;;;;;;5065122;28;20651;-59
2023/04/27 05:30:42;;;;;;;9.48;5.97;;;4.10;99.90;;;;;;5063610;28;20048;-60
2023/04/27 05:33:14;;;;;;;15.00;6.63;;;4.10;99.90;;;;;;5054818;28;20041;-59
2023/04/27 05:35:40;;;;;;;12.20;7.47;;;4.20;99.90;;;;;;5062074;28;20601;-59
2023/04/27 05:38:06;;;;;;;9.23;6.10;;;4.20;99.90;;;;;;5059200;28;20037;-58
2023/04/27 05:40:31;;;;;;;12.23;6.93;;;4.30;99.90;;;;;;5065558;28;20059;-59
2023/04/27 05:42:57;;;;;;;11.45;6.68;;;4.30;99.90;;;;;;5061584;28;20040;-59
2023/04/27 05:45:23;;;;;;;8.45;5.97;;;4.40;99.90;;;;;;5049809;28;20070;-59
2023/04/27 05:47:49;;;;;;;9.02;5.55;;;4.40;99.90;;;;;;5062936;28;20483;-59
2023/04/27 05:50:15;;;;;;;9.07;6.30;;;4.40;99.90;;;;;;5065775;28;20063;-58
2023/04/27 05:52:40;;;;;;;10.48;6.45;;;4.50;99.90;;;;;;5067973;28;20116;-59
2023/04/27 05:55:07;;;;;;;12.27;6.75;;;4.60;99.90;;;;;;5060340;28;20120;-59
2023/04/27 05:57:32;;;;;;;11.48;6.45;;;4.60;99.90;;;;;;5065502;28;20045;-59
2023/04/27 05:59:59;;;;;;;11.98;6.30;;;4.70;99.90;;;;;;5060296;28;20119;-59
2023/04/27 06:02:25;;;;;;;9.25;5.28;;;4.80;99.90;;;;;;5063554;28;20041;-59
2023/04/27 06:04:51;;;;;;;9.65;5.78;;;4.90;99.90;;;;;;5059909;28;20040;-59
2023/04/27 06:07:16;;;;;;;10.32;5.75;;;5.00;99.90;;;;;;5065973;28;20041;-59
2023/04/27 06:09:42;;;;;;;11.85;5.82;;;5.00;99.90;;;;;;5064950;28;20043;-59
2023/04/27 06:12:08;;;;;;;9.40;6.32;;;5.10;99.90;;;;;;5065757;28;20035;-59
2023/04/27 06:14:35;;;;;;;11.88;6.40;;;5.20;99.90;;;;;;5061074;28;20090;-59
2023/04/27 06:17:02;;;;;;;10.68;5.72;;;5.30;99.90;;;;;;5067755;28;20430;-59
2023/04/27 06:19:28;;;;;;;10.68;5.05;;;5.30;99.90;;;;;;5060804;28;20143;-59
2023/04/27 06:21:54;;;;;;;9.30;5.20;;;5.50;99.90;;;;;;5064716;28;20059;-59
2023/04/27 06:24:21;;;;;;;10.05;5.85;;;5.60;99.90;;;;;;5063986;28;20111;-59
2023/04/27 06:26:47;;;;;;;8.85;5.45;;;5.70;99.90;;;;;;5047617;28;20044;-59
2023/04/27 06:29:13;;;;;;;11.40;4.70;;;5.80;99.90;;;;;;5053722;28;20595;-59
2023/04/27 06:31:39;;;;;;;9.25;4.82;;;5.90;99.90;;;;;;5053451;28;20131;-59
2023/04/27 06:34:05;;;;;;;10.02;5.30;;;6.00;99.90;;;;;;5056197;28;20106;-59
2023/04/27 06:36:31;;;;;;;9.40;4.55;;;6.10;99.90;;;;;;5057561;28;20078;-59
2023/04/27 06:38:58;;;;;;;8.48;4.40;;;6.20;99.90;;;;;;5064307;28;20128;-58
2023/04/27 06:41:25;;;;;;;9.60;4.90;;;6.30;99.90;;;;;;5057791;28;20056;-59
2023/04/27 06:43:51;;;;;;;9.65;4.95;;;6.40;99.90;;;;;;5063252;28;20040;-59
2023/04/27 06:46:17;;;;;;;5.65;3.70;;;6.50;99.90;;;;;;5060576;28;20158;-60
2023/04/27 06:48:43;;;;;;;7.72;3.50;;;6.60;99.90;;;;;;5063323;28;20191;-60
2023/04/27 06:51:09;;;;;;;8.35;3.92;;;6.70;99.90;;;;;;5059022;28;20098;-59
2023/04/27 06:53:35;;;;;;;5.22;3.58;;;6.80;99.90;;;;;;5058198;28;20043;-59
2023/04/27 06:56:01;;;;;;;7.82;4.00;;;6.90;99.90;;;;;;5062190;28;20142;-59
2023/04/27 06:58:27;;;;;;;7.15;3.50;;;7.00;99.90;;;;;;5061988;28;20532;-58
2023/04/27 07:00:52;;;;;;;5.72;3.60;;;7.10;99.90;;;;;;5057528;28;20028;-60
2023/04/27 07:03:19;;;;;;;7.47;3.55;;;7.20;99.90;;;;;;5059142;28;20063;-59
2023/04/27 07:05:45;;;;;;;6.72;3.70;;;7.40;99.90;;;;;;5051842;28;21850;-60
2023/04/27 07:08:11;;;;;;;8.88;3.50;;;7.50;99.90;;;;;;5059516;28;20127;-59
2023/04/27 07:10:37;;;;;;;7.82;4.75;;;7.60;99.90;;;;;;5057590;28;20091;-58
2023/04/27 07:13:03;;;;;;;4.88;3.47;;;7.70;99.90;;;;;;5057419;28;20525;-60
2023/04/27 07:15:32;;;;;;;6.90;3.20;;;7.80;99.90;;;;;;5057698;28;20049;-59
2023/04/27 07:17:58;;;;;;;3.95;2.35;;;7.80;99.90;;;;;;5058265;28;20037;-58
2023/04/27 07:20:24;;;;;;;7.15;3.63;;;8.00;99.90;;;;;;5053828;28;20041;-59
2023/04/27 07:22:50;;;;;;;6.65;3.45;;;8.00;99.90;;;;;;5058211;28;20048;-59
2023/04/27 07:25:15;;;;;;;5.88;3.42;;;8.20;99.90;;;;;;5060127;28;20492;-59
2023/04/27 07:27:41;;;;;;;8.13;3.08;;;8.30;99.90;;;;;;5051060;28;20710;-59
2023/04/27 07:30:08;;;;;;;6.07;2.72;;;8.30;99.90;;;;;;5059214;28;20032;-59
2023/04/27 07:32:40;;;;;;;5.00;2.40;;;8.40;99.90;;;;;;5060182;28;20486;-59
2023/04/27 07:35:06;;;;;;;5.53;3.60;;;8.50;99.90;;;;;;5058870;28;20053;-59
2023/04/27 07:37:32;;;;;;;11.10;3.83;;;8.60;99.90;;;;;;5060993;28;20182;-59
2023/04/27 07:39:58;;;;;;;5.63;2.88;;;8.70;99.90;;;;;;5065088;28;20045;-58
2023/04/27 07:42:24;;;;;;;5.80;3.08;;;8.80;99.90;;;;;;5064385;28;20039;-59
2023/04/27 07:44:51;;;;;;;10.52;5.18;;;8.90;99.90;;;;;;5055233;28;20036;-59
2023/04/27 07:47:20;;;;;;;10.23;3.20;;;8.90;99.90;;;;;;5059752;28;20048;-59
2023/04/27 07:49:46;;;;;;;6.88;2.95;;;9.00;99.90;;;;;;5060716;28;20157;-59
2023/04/27 07:52:13;;;;;;;8.85;3.45;;;9.10;99.90;;;;;;5060041;28;20044;-59
2023/04/27 07:54:39;;;;;;;5.28;3.15;;;9.20;99.90;;;;;;5059829;28;20048;-59
2023/04/27 07:57:10;;;;;;;7.10;3.22;;;9.30;99.90;;;;;;5056350;28;20071;-59
2023/04/27 07:59:36;;;;;;;6.35;3.20;;;9.30;99.90;;;;;;5062740;28;20036;-59
2023/04/27 08:02:02;;;;;;;4.38;2.75;;;9.40;99.90;;;;;;5055824;28;20419;-60
2023/04/27 08:04:28;;;;;;;6.28;2.78;;;9.40;99.90;;;;;;5057870;28;20033;-58
2023/04/27 08:06:54;;;;;;;4.25;2.33;;;9.40;99.90;;;;;;5062287;28;20059;-58
2023/04/27 08:09:20;;;;;;;6.40;2.90;;;9.50;99.90;;;;;;5062209;28;20503;-59
2023/04/27 08:11:45;;;;;;;6.05;2.78;;;9.50;99.90;;;;;;5060520;28;20051;-57
2023/04/27 08:14:14;;;;;;;5.97;2.47;;;9.70;99.90;;;;;;5057532;28;20044;-59
2023/04/27 08:16:43;;;;;;;8.60;2.97;;;9.70;99.90;;;;;;5061916;28;20592;-59
2023/04/27 08:19:10;;;;;;;7.18;2.80;;;9.80;99.90;;;;;;5054860;28;20515;-57
2023/04/27 08:21:37;;;;;;;6.60;2.60;;;9.90;99.90;;;;;;5062106;28;20637;-58
2023/04/27 08:24:03;;;;;;;5.55;2.17;;;10.10;99.90;;;;;;5060913;28;20048;-58
2023/04/27 08:26:29;;;;;;;4.28;1.67;;;10.00;98.60;;;;;;5044947;28;20049;-57
2023/04/27 08:28:56;;;;;;;3.92;2.00;;;10.10;99.00;;;;;;5060828;28;20033;-58
2023/04/27 08:31:23;;;;;;;7.72;2.47;;;10.20;98.90;;;;;;5062267;28;20048;-59
2023/04/27 08:33:49;;;;;;;7.10;2.58;;;10.30;98.40;;;;;;5063752;28;20032;-59
2023/04/27 08:36:15;;;;;;;6.95;2.17;;;10.40;98.20;;;;;;5058048;28;20422;-59
2023/04/27 08:38:41;;;;;;;5.25;2.70;;;10.40;98.00;;;;;;5057828;28;20031;-59
2023/04/27 08:41:07;;;;;;;4.70;2.42;;;10.50;98.00;;;;;;5057221;28;20512;-59
2023/04/27 08:43:34;;;;;;;4.80;2.25;;;10.50;98.10;;;;;;5064567;28;20115;-60
2023/04/27 08:46:00;;;;;;;8.73;2.78;;;10.60;98.10;;;;;;5059941;28;20049;-58
2023/04/27 08:48:25;;;;;;;5.95;2.72;;;10.70;98.00;;;;;;5059246;28;20036;-59
2023/04/27 08:50:52;;;;;;;6.43;2.80;;;10.70;98.00;;;;;;5056882;28;20037;-59
2023/04/27 08:53:22;;;;;;;5.45;2.67;;;10.80;98.20;;;;;;5059270;28;20119;-59
2023/04/27 08:55:49;;;;;;;5.68;3.03;;;10.90;98.40;;;;;;5065977;28;20124;-62
2023/04/27 08:58:15;;;;;;;4.97;3.30;;;10.90;97.40;;;;;;5064878;28;20511;-61
2023/04/27 09:00:42;;;;;;;8.23;3.03;;;10.90;97.70;;;;;;5058153;28;20111;-61
2023/04/27 09:03:21;;;;;;;3.75;2.17;;;11.00;97.20;;;;;;5058563;28;20041;-62
2023/04/27 09:05:47;;;;;;;4.22;2.28;;;11.10;97.00;;;;;;5058830;28;20041;-63
2023/04/27 09:08:13;;;;;;;3.70;2.60;;;11.10;96.70;;;;;;5054755;28;20075;-61
2023/04/27 09:10:46;;;;;;;5.07;2.30;;;11.20;96.60;;;;;;5045267;28;20064;-62
2023/04/27 09:13:13;;;;;;;7.30;2.28;;;11.30;96.20;;;;;;5043148;28;20048;-62
2023/04/27 09:15:46;;;;;;;8.93;2.90;;;11.30;96.30;;;;;;5058877;28;20047;-61
2023/04/27 09:18:22;;;;;;;4.80;2.15;;;11.50;96.40;;;;;;5056901;28;20499;-61
2023/04/27 09:20:52;;;;;;;5.47;2.08;;;11.70;96.50;;;;;;5060777;28;20040;-61
2023/04/27 09:23:34;;;;;;;4.90;2.15;;;11.80;96.10;;;;;;5058025;28;20421;-62
2023/04/27 09:26:06;;;;;;;6.80;2.10;;;11.80;94.90;;;;;;5046600;28;20131;-61
2023/04/27 09:28:33;;;;;;;4.20;2.17;;;12.00;95.10;;;;;;5060444;28;20048;-61
2023/04/27 09:31:01;;;;;;;6.18;2.30;;;12.00;94.30;;;;;;5059978;28;20411;-61
2023/04/27 09:33:30;;;;;;;3.85;2.70;;;11.90;94.40;;;;;;5044226;28;20786;-63
2023/04/27 09:36:02;;;;;;;7.13;2.42;;;11.90;94.20;;;;;;5041998;28;20072;-63
2023/04/27 09:38:29;;;;;;;6.28;3.22;;;12.00;93.70;;;;;;5043865;28;20052;-62
2023/04/27 09:40:55;;;;;;;7.38;3.10;;;12.10;94.40;;;;;;5058541;28;21084;-61
2023/04/27 09:43:22;;;;;;;6.32;3.00;;;12.20;94.70;;;;;;5057050;28;20041;-61
2023/04/27 09:45:49;;;;;;;5.30;2.70;;;12.30;94.50;;;;;;5065424;28;20079;-61
2023/04/27 09:48:16;;;;;;;6.93;2.85;;;12.30;94.40;;;;;;5058287;28;20044;-61
2023/04/27 09:50:43;;;;;;;4.10;2.55;;;12.30;92.80;;;;;;5061055;28;20045;-61
2023/04/27 09:53:12;;;;;;;7.18;2.88;;;12.20;93.60;;;;;;5058906;28;20113;-62
2023/04/27 09:56:02;;;;;;;6.15;2.63;;;12.30;93.50;;;;;;5059043;28;20502;-61
2023/04/27 09:58:31;;;;;;;6.53;2.80;;;12.50;93.60;;;;;;5057360;28;20032;-62
2023/04/27 10:01:12;;;;;;;5.25;2.55;;;12.60;94.00;;;;;;5055940;28;20075;-63
2023/04/27 10:04:02;;;;;;;4.75;2.60;;;12.70;93.10;;;;;;5057404;28;20045;-62
2023/04/27 10:06:46;;;;;;;5.25;2.60;;;12.70;92.80;;;;;;5050906;28;20055;-62
2023/04/27 10:09:13;;;;;;;7.43;2.65;;;12.80;93.50;;;;;;5055325;28;20332;-62
2023/04/27 10:11:41;;;;;;;5.70;2.40;;;12.70;92.70;;;;;;5062710;28;20426;-62
2023/04/27 10:14:09;;;;;;;4.72;2.92;;;12.70;93.00;;;;;;5043125;28;20048;-62
2023/04/27 10:16:44;;;;;;;4.75;2.80;;;12.80;93.00;;;;;;5059803;28;20701;-64
2023/04/27 10:19:09;;;;;;;6.07;3.10;;;12.90;92.40;;;;;;5053596;28;20129;-62
2023/04/27 10:21:35;;;;;;;6.88;3.08;;;13.00;93.20;;;;;;5056805;28;20859;-61
2023/04/27 10:24:07;;;;;;;6.55;3.53;;;13.00;92.60;;;;;;5059128;28;20032;-64
2023/04/27 10:26:33;;;;;;;7.22;3.30;;;12.70;90.50;;;;;;5056665;28;20044;-62
2023/04/27 10:29:06;;;;;;;6.60;3.28;;;12.70;92.40;;;;;;5059211;28;20527;-62
2023/04/27 10:31:32;;;;;;;7.20;4.38;;;12.80;92.60;;;;;;5050048;28;20045;-62
2023/04/27 10:34:14;;;;;;;9.30;3.75;;;13.10;91.60;;;;;;5058177;28;20094;-62
2023/04/27 10:36:41;;;;;;;5.80;3.13;;;12.70;92.50;;;;;;5056659;28;20052;-61
2023/04/27 10:39:17;;;;;;;8.45;3.00;;;12.80;92.50;;;;;;5059820;28;20432;-61
2023/04/27 10:41:54;;;;;;;4.55;3.03;;;13.00;92.80;;;;;;5059347;28;20143;-61
2023/04/27 10:44:28;;;;;;;6.53;3.13;;;13.10;92.50;;;;;;5058525;28;20711;-62
2023/04/27 10:46:56;;;;;;;7.50;3.30;;;13.30;92.50;;;;;;5057636;28;20134;-62
2023/04/27 10:49:22;;;;;;;10.93;4.28;;;13.00;90.70;;;;;;5062132;28;20044;-61
2023/04/27 10:51:52;;;;;;;8.13;4.55;;;12.60;90.70;;;;;;5061475;28;20036;-62
2023/04/27 10:54:17;;;;;;;5.82;3.80;;;12.60;91.50;;;;;;5062401;28;20041;-62
2023/04/27 10:56:43;;;;;;;6.20;3.45;;;12.70;92.60;;;;;;5042895;28;20450;-62
2023/04/27 10:59:09;;;;;;;9.30;3.55;;;12.80;90.80;;;;;;5063044;28;20044;-62
2023/04/27 11:01:36;;;;;;;5.47;2.97;;;12.70;92.00;;;;;;5055786;28;20111;-62
2023/04/27 11:04:03;;;;;;;5.60;3.13;;;12.50;91.20;;;;;;5053038;28;20029;-61
2023/04/27 11:06:32;;;;;;;5.53;3.00;;;12.30;92.60;;;;;;5057493;28;20076;-62
2023/04/27 11:08:59;;;;;;;8.85;4.05;;;12.40;92.80;;;;;;5041371;28;20111;-62
2023/04/27 11:11:25;;;;;;;7.05;3.78;;;12.50;92.20;;;;;;5054833;28;20526;-63
2023/04/27 11:13:54;;;;;;;7.20;4.15;;;12.40;91.80;;;;;;5059900;28;20041;-63
2023/04/27 11:16:20;;;;;;;6.15;3.47;;;12.50;91.70;;;;;;5052673;28;20412;-63
2023/04/27 11:18:46;;;;;;;6.82;3.33;;;12.60;92.00;;;;;;5060102;28;20025;-62
2023/04/27 11:21:15;;;;;;;7.82;3.90;;;12.70;92.20;;;;;;5050418;28;20045;-61
2023/04/27 11:23:42;;;;;;;10.70;3.65;;;12.80;92.40;;;;;;5048412;28;20057;-62
2023/04/27 11:26:13;;;;;;;4.97;3.58;;;12.80;91.80;;;;;;5056520;28;20037;-62
2023/04/27 11:29:12;;;;;;;5.78;3.33;;;12.80;91.70;;;;;;5056007;28;20055;-61
2023/04/27 11:31:46;;;;;;;6.93;3.60;;;12.80;91.70;;;;;;5063743;28;20049;-62
2023/04/27 11:34:22;;;;;;;6.45;3.22;;;12.70;90.80;;;;;;5055005;28;20424;-62
2023/04/27 11:37:05;;;;;;;6.90;3.60;;;12.60;91.10;;;;;;5042991;28;20140;-61
2023/04/27 11:39:40;;;;;;;5.07;3.08;;;12.30;90.70;;;;;;5060354;28;20364;-61
2023/04/27 11:42:20;;;;;;;8.30;4.30;;;12.30;91.60;;;;;;5061940;28;20044;-62
2023/04/27 11:45:06;;;;;;;9.15;3.90;;;12.20;90.40;;;;;;5058459;28;20349;-62
2023/04/27 11:47:34;;;;;;;5.10;3.17;;;12.10;91.20;;;;;;5063831;28;20805;-61
2023/04/27 11:50:05;;;;;;;10.70;4.28;;;12.10;91.40;;;;;;5060022;28;20112;-62
2023/04/27 11:52:35;;;;;;;9.68;3.72;;;12.00;91.10;;;;;;5052968;28;20055;-62
2023/04/27 11:55:07;;;;;;;7.93;3.75;;;11.90;90.70;;;;;;5040142;28;20071;-62
2023/04/27 11:57:34;;;;;;;7.03;4.05;;;11.90;91.30;;;;;;5056078;28;20060;-61
2023/04/27 12:00:07;;;;;;;5.15;3.17;;;11.80;90.80;;;;;;5054866;28;20045;-61
2023/04/27 12:02:33;;;;;;;9.02;3.30;;;11.90;91.50;;;;;;5044341;28;20123;-61
2023/04/27 12:04:59;;;;;;;7.85;3.90;;;12.10;92.10;;;;;;5067399;28;20123;-60
2023/04/27 12:07:25;;;;;;;7.90;3.75;;;12.30;92.00;;;;;;5055325;28;20039;-61
2023/04/27 12:09:50;;;;;;;7.35;3.45;;;12.40;91.90;;;;;;5041674;28;20531;-61
2023/04/27 12:12:21;;;;;;;4.50;2.95;;;12.40;90.90;;;;;;5054551;28;20076;-61
2023/04/27 12:14:47;;;;;;;9.00;3.90;;;12.40;91.70;;;;;;5063645;28;20119;-61
2023/04/27 12:17:13;;;;;;;7.35;2.80;;;12.50;92.80;;;;;;5060219;28;20516;-61
2023/04/27 12:19:38;;;;;;;5.78;2.75;;;12.60;93.90;;;;;;5060714;28;20037;-62
2023/04/27 12:22:05;;;;;;;6.78;3.13;;;12.60;94.10;;;;;;5037716;28;20036;-63
2023/04/27 12:24:31;;;;;;;5.97;3.15;;;12.50;94.10;;;;;;5060329;28;20044;-62
2023/04/27 12:26:57;;;;;;;7.68;3.05;;;12.50;94.30;;;;;;5060555;28;20394;-61
2023/04/27 12:29:23;;;;;;;6.28;3.17;;;12.60;94.20;;;;;;5061351;28;20047;-62
2023/04/27 12:31:50;;;;;;;9.35;3.47;;;12.70;94.30;;;;;;5070222;28;20449;-62
2023/04/27 12:34:15;;;;;;;6.55;2.97;;;12.80;94.40;;;;;;5046693;28;20124;-62
2023/04/27 12:36:41;;;;;;;8.43;4.13;;;12.90;94.10;;;;;;5059212;28;20115;-62
2023/04/27 12:39:21;;;;;;;9.60;3.38;;;13.00;94.50;;;;;;5061100;28;20033;-63
2023/04/27 12:41:48;;;;;;;6.95;3.38;;;13.10;93.50;;;;;;5041304;28;20115;-61
2023/04/27 12:44:15;;;;;;;7.65;3.10;;;12.90;93.20;;;;;;5060703;28;20032;-64
2023/04/27 12:46:41;;;;;;;9.05;3.85;;;12.80;92.70;;;;;;5061333;28;20037;-62
2023/04/27 12:49:08;;;;;;;6.40;3.22;;;12.70;93.30;;;;;;5064203;28;20051;-63
2023/04/27 12:51:34;;;;;;;4.72;3.13;;;12.50;93.40;;;;;;5057784;28;20037;-62